createdAt,value
2019-06-07T00:01:16.475Z,17.07
2019-06-07T00:03:51.152Z,15.50
2019-06-07T00:06:26.763Z,16.00
2019-06-07T00:08:59.228Z,17.87
2019-06-07T00:11:32.923Z,18.47
2019-06-07T00:14:06.351Z,19.67
2019-06-07T00:16:42.374Z,17.80
2019-06-07T00:19:17.092Z,18.47
2019-06-07T00:22:15.468Z,18.43
2019-06-07T00:24:25.869Z,17.70
2019-06-07T00:26:59.349Z,17.77
2019-06-07T00:29:32.934Z,19.30
2019-06-07T00:32:06.039Z,18.23
2019-06-07T00:34:39.106Z,17.30
2019-06-07T00:37:13.874Z,18.43
2019-06-07T00:39:45.262Z,17.00
2019-06-07T00:42:19.354Z,17.30
2019-06-07T00:44:50.243Z,14.90
2019-06-07T00:47:25.779Z,16.03
2019-06-07T00:49:58.250Z,14.37
2019-06-07T00:55:07.605Z,17.50
2019-06-07T00:57:39.494Z,15.77
2019-06-07T01:00:15.021Z,16.40
2019-06-07T01:02:49.259Z,17.23
2019-06-07T01:05:30.465Z,15.27
2019-06-07T01:07:57.243Z,14.23
2019-06-07T01:10:52.285Z,14.77
2019-06-07T01:13:05.346Z,14.23
2019-06-07T01:15:38.832Z,13.50
2019-06-07T01:18:35.775Z,16.27
2019-06-07T01:20:46.491Z,14.30
2019-06-07T01:24:03.208Z,13.30
2019-06-07T01:25:55.191Z,15.03
2019-06-07T01:28:30.076Z,15.10
2019-06-07T01:31:03.333Z,13.07
2019-06-07T01:33:50.216Z,13.80
2019-06-07T01:36:13.281Z,13.10
2019-06-07T01:38:48.226Z,13.70
2019-06-07T01:41:25.276Z,15.57
2019-06-07T01:43:58.733Z,16.40
2019-06-07T01:46:31.453Z,16.87
2019-06-07T01:49:05.228Z,19.20
2019-06-07T01:51:37.296Z,17.03
2019-06-07T01:56:44.606Z,16.27
2019-06-07T01:59:17.795Z,17.10
2019-06-07T02:01:52.080Z,17.03
2019-06-07T02:04:29.390Z,18.17
2019-06-07T02:06:59.534Z,20.57
2019-06-07T02:09:32.565Z,17.83
2019-06-07T02:12:24.789Z,15.80
2019-06-07T02:14:39.539Z,17.10
2019-06-07T02:17:10.896Z,18.70
2019-06-07T02:19:43.696Z,19.00
2019-06-07T02:22:16.534Z,18.30
2019-06-07T02:25:33.876Z,16.43
2019-06-07T02:27:24.611Z,17.63
2019-06-07T02:29:59.066Z,18.87
2019-06-07T02:32:36.602Z,18.03
2019-06-07T02:35:06.961Z,18.47
2019-06-07T02:37:40.311Z,18.30
2019-06-07T02:40:14.067Z,18.57
2019-06-07T02:42:45.908Z,17.90
2019-06-07T02:45:18.816Z,17.57
2019-06-07T02:47:52.086Z,16.93
2019-06-07T02:50:26.321Z,17.70
2019-06-07T02:52:59.712Z,18.00
2019-06-07T02:55:45.798Z,15.90
2019-06-07T02:58:05.815Z,16.67
2019-06-07T03:01:04.107Z,16.47
2019-06-07T03:03:22.345Z,17.00
2019-06-07T03:05:53.690Z,15.73
2019-06-07T03:08:28.303Z,15.10
2019-06-07T03:11:01.154Z,17.20
2019-06-07T03:13:37.425Z,17.63
2019-06-07T03:16:13.472Z,17.27
2019-06-07T03:19:21.359Z,17.17
2019-06-07T03:21:54.422Z,18.07
2019-06-07T03:24:30.989Z,19.77
2019-06-07T03:29:36.949Z,16.90
2019-06-07T03:32:08.770Z,17.27
2019-06-07T03:34:43.854Z,17.83
2019-06-07T03:37:15.809Z,19.67
2019-06-07T03:39:49.797Z,19.53
2019-06-07T03:42:21.984Z,19.90
2019-06-07T03:44:55.115Z,18.90
2019-06-07T03:47:31.888Z,18.10
2019-06-07T03:50:02.117Z,18.23
2019-06-07T03:52:40.613Z,19.80
2019-06-07T03:55:09.132Z,20.93
2019-06-07T03:58:30.252Z,18.93
2019-06-07T04:00:15.293Z,20.00
2019-06-07T04:03:05.659Z,21.43
2019-06-07T04:05:42.966Z,21.63
2019-06-07T04:08:15.856Z,24.93
2019-06-07T04:10:59.201Z,23.73
2019-06-07T04:13:21.989Z,22.30
2019-06-07T04:15:55.012Z,25.67
2019-06-07T04:18:30.839Z,21.27
2019-06-07T04:21:03.184Z,23.37
2019-06-07T04:23:40.318Z,21.60
2019-06-07T04:26:09.388Z,22.43
2019-06-07T04:29:30.801Z,24.30
2019-06-07T04:31:14.217Z,25.17
2019-06-07T04:33:46.374Z,27.93
2019-06-07T04:36:39.205Z,26.00
2019-06-07T04:38:59.767Z,29.90
2019-06-07T04:41:33.672Z,25.87
2019-06-07T04:44:10.692Z,24.47
2019-06-07T04:46:44.477Z,26.20
2019-06-07T04:49:16.203Z,26.53
2019-06-07T04:51:50.030Z,26.60
2019-06-07T04:54:23.375Z,25.53
2019-06-07T04:56:59.131Z,24.17
2019-06-07T05:00:04.169Z,23.27
2019-06-07T05:09:21.105Z,23.73
2019-06-07T05:11:54.593Z,23.80
2019-06-07T05:17:43.281Z,20.80
2019-06-07T05:20:16.111Z,26.07
2019-06-07T05:22:47.929Z,25.40
2019-06-07T05:25:21.603Z,25.13
2019-06-07T05:27:55.588Z,29.30
2019-06-07T05:31:03.027Z,26.97
2019-06-07T05:33:11.593Z,26.07
2019-06-07T05:35:43.798Z,24.50
2019-06-07T05:38:16.732Z,28.40
2019-06-07T05:40:49.122Z,25.27
2019-06-07T05:43:29.484Z,24.53
2019-06-07T05:46:01.616Z,23.63
2019-06-07T05:48:34.156Z,22.57
2019-06-07T05:51:05.629Z,23.20
2019-06-07T05:53:40.819Z,20.17
2019-06-07T05:56:15.494Z,23.60
2019-06-07T05:58:49.696Z,23.20
2019-06-07T06:01:45.925Z,22.57
2019-06-07T06:04:00.312Z,23.70
2019-06-07T06:06:33.804Z,22.20
2019-06-07T06:09:13.725Z,21.90
2019-06-07T06:11:54.720Z,21.23
2019-06-07T06:14:18.816Z,22.93
2019-06-07T06:16:51.931Z,22.37
2019-06-07T06:19:24.833Z,19.13
2019-06-07T06:21:56.753Z,19.90
2019-06-07T06:24:31.523Z,20.90
2019-06-07T06:27:41.525Z,21.97
2019-06-07T06:29:44.529Z,21.47
2019-06-07T06:34:56.498Z,20.20
2019-06-07T06:37:30.527Z,20.80
2019-06-07T06:40:02.736Z,20.97
2019-06-07T06:42:37.230Z,19.53
2019-06-07T06:45:12.830Z,17.40
2019-06-07T06:47:48.533Z,18.60
2019-06-07T06:50:20.864Z,18.20
2019-06-07T06:52:54.639Z,17.03
2019-06-07T06:55:25.850Z,13.30
2019-06-07T06:57:57.865Z,12.50
2019-06-07T07:00:53.536Z,13.23
2019-06-07T07:05:56.510Z,10.50
2019-06-07T07:08:29.118Z,10.80
2019-06-07T07:11:03.105Z,9.10
2019-06-07T07:13:38.107Z,10.43
2019-06-07T07:16:11.057Z,11.17
2019-06-07T07:18:44.279Z,10.70
2019-06-07T07:21:19.546Z,9.60
2019-06-07T07:24:15.173Z,10.20
2019-06-07T07:26:26.123Z,10.80
2019-06-07T07:29:00.195Z,9.80
2019-06-07T07:31:31.682Z,8.90
2019-06-07T07:34:32.550Z,10.57
2019-06-07T07:36:40.082Z,9.97
2019-06-07T07:39:13.035Z,9.60
2019-06-07T07:42:12.344Z,10.50
2019-06-07T07:44:20.051Z,9.93
2019-06-07T07:46:56.222Z,10.87
2019-06-07T07:49:28.167Z,8.50
2019-06-07T07:52:01.290Z,9.10
2019-06-07T07:54:35.240Z,9.70
2019-06-07T07:57:08.208Z,10.37
2019-06-07T07:59:42.150Z,9.83
2019-06-07T08:02:15.419Z,10.60
2019-06-07T08:05:16.535Z,9.93
2019-06-07T08:10:48.039Z,10.20
2019-06-07T08:13:25.859Z,9.13
2019-06-07T08:15:59.232Z,8.83
2019-06-07T08:18:29.366Z,10.47
2019-06-07T08:21:21.245Z,9.00
2019-06-07T08:23:36.102Z,10.17
2019-06-07T08:26:10.248Z,9.50
2019-06-07T08:28:48.416Z,9.00
2019-06-07T08:31:22.196Z,9.80
2019-06-07T08:34:00.430Z,8.70
2019-06-07T08:36:41.934Z,9.10
2019-06-07T08:39:08.309Z,8.50
2019-06-07T08:41:53.710Z,7.50
2019-06-07T08:44:23.440Z,8.10
2019-06-07T08:46:55.542Z,7.80
2019-06-07T08:49:23.450Z,9.77
2019-06-07T08:52:05.668Z,7.97
2019-06-07T08:54:30.661Z,7.47
2019-06-07T08:57:19.643Z,8.47
2019-06-07T08:59:36.537Z,9.10
2019-06-07T09:02:22.814Z,7.87
2019-06-07T09:04:43.548Z,8.67
2019-06-07T09:07:20.050Z,8.77
2019-06-07T09:09:49.620Z,8.80
2019-06-07T09:12:23.660Z,7.70
2019-06-07T09:15:06.329Z,8.20
2019-06-07T09:17:30.637Z,7.50
2019-06-07T09:20:07.662Z,7.90
2019-06-07T09:22:37.570Z,8.30
2019-06-07T09:25:20.574Z,8.07
2019-06-07T09:27:50.522Z,7.10
2019-06-07T09:30:38.728Z,7.47
2019-06-07T09:33:12.295Z,7.10
2019-06-07T09:35:45.592Z,7.10
2019-06-07T09:38:25.833Z,7.50
2019-06-07T09:40:53.657Z,7.50
2019-06-07T09:46:04.023Z,8.53
2019-06-07T09:49:10.033Z,7.40
2019-06-07T09:51:19.209Z,7.97
2019-06-07T09:53:44.009Z,7.10
2019-06-07T09:56:17.849Z,7.20
2019-06-07T09:58:53.638Z,8.50
2019-06-07T10:01:27.348Z,6.90
2019-06-07T10:04:04.635Z,7.43
2019-06-07T10:06:35.107Z,7.27
2019-06-07T10:11:44.468Z,7.93
2019-06-07T10:14:18.444Z,7.40
2019-06-07T10:16:51.022Z,6.50
2019-06-07T10:19:25.110Z,6.40
2019-06-07T10:22:01.431Z,6.80
2019-06-07T10:28:08.209Z,7.20
2019-06-07T10:30:41.888Z,6.97
2019-06-07T10:33:17.149Z,7.37
2019-06-07T10:35:49.007Z,5.87
2019-06-07T10:38:22.110Z,6.23
2019-06-07T10:40:55.111Z,6.90
2019-06-07T10:43:28.906Z,6.03
2019-06-07T10:46:01.446Z,6.67
2019-06-07T10:48:34.979Z,5.97
2019-06-07T10:51:11.452Z,5.87
2019-06-07T10:53:43.008Z,6.20
2019-06-07T10:56:18.721Z,5.63
2019-06-07T10:58:50.142Z,6.83
2019-06-07T11:01:25.823Z,5.77
2019-06-07T11:04:01.539Z,6.57
2019-06-07T11:06:34.309Z,6.70
2019-06-07T11:09:09.914Z,6.70
2019-06-07T11:11:42.096Z,5.57
2019-06-07T11:14:15.339Z,6.70
2019-06-07T11:16:48.345Z,5.30
2019-06-07T11:19:21.793Z,6.10
2019-06-07T11:21:53.207Z,6.50
2019-06-07T11:24:26.444Z,6.63
2019-06-07T11:27:00.990Z,5.90
2019-06-07T11:29:33.509Z,5.97
2019-06-07T11:32:08.387Z,6.57
2019-06-07T11:34:40.294Z,5.50
2019-06-07T11:37:13.805Z,5.30
2019-06-07T11:39:46.386Z,6.93
2019-06-07T11:42:21.909Z,6.50
2019-06-07T11:44:57.002Z,6.47
2019-06-07T11:47:26.341Z,6.07
2019-06-07T11:50:01.603Z,6.60
2019-06-07T11:52:34.458Z,6.80
2019-06-07T11:55:06.704Z,5.90
2019-06-07T11:57:40.510Z,6.17
2019-06-07T12:00:18.392Z,5.97
2019-06-07T12:02:50.440Z,6.63
2019-06-07T12:05:22.551Z,6.03
2019-06-07T12:07:57.156Z,5.20
2019-06-07T12:10:42.197Z,5.50
2019-06-07T12:13:06.641Z,6.57
2019-06-07T12:15:42.637Z,6.07
2019-06-07T12:18:19.691Z,5.60
2019-06-07T12:20:53.486Z,6.17
2019-06-07T12:23:26.450Z,6.60
2019-06-07T12:26:01.301Z,5.80
2019-06-07T12:28:35.585Z,5.93
2019-06-07T12:31:10.770Z,6.10
2019-06-07T12:33:43.484Z,5.67
2019-06-07T12:36:15.964Z,5.13
2019-06-07T12:38:48.424Z,6.37
2019-06-07T12:56:27.037Z,8.13
2019-06-07T12:59:01.037Z,6.17
2019-06-07T13:01:33.517Z,6.23
2019-06-07T13:07:39.652Z,5.90
2019-06-07T13:10:15.570Z,7.90
2019-06-07T13:12:48.999Z,6.20
2019-06-07T13:15:23.833Z,6.10
2019-06-07T13:17:56.750Z,5.77
2019-06-07T13:20:29.018Z,6.20
2019-06-07T13:23:02.948Z,7.40
2019-06-07T13:25:46.080Z,6.40
2019-06-07T13:28:11.879Z,5.73
2019-06-07T13:30:46.533Z,6.40
2019-06-07T13:33:19.015Z,6.00
2019-06-07T13:35:52.996Z,6.30
2019-06-07T13:38:28.875Z,6.57
2019-06-07T13:41:01.948Z,6.23
2019-06-07T13:43:35.024Z,6.33
2019-06-07T13:46:12.846Z,6.97
2019-06-07T14:24:20.934Z,6.33
2019-06-07T14:27:07.654Z,7.63
2019-06-07T14:29:41.425Z,7.70
2019-06-07T14:32:15.187Z,7.17
2019-06-07T14:34:48.149Z,7.37
2019-06-07T14:37:22.802Z,7.13
2019-06-07T14:39:57.318Z,6.20
2019-06-07T14:42:31.636Z,6.00
2019-06-07T14:45:06.479Z,6.50
2019-06-07T14:47:40.376Z,7.23
2019-06-07T14:50:14.610Z,7.40
2019-06-07T14:52:48.142Z,7.40
2019-06-07T14:55:21.867Z,8.27
2019-06-07T14:57:55.310Z,7.03
2019-06-07T15:00:40.426Z,7.83
2019-06-07T15:03:13.175Z,7.40
2019-06-07T15:05:44.431Z,8.23
2019-06-07T15:08:17.424Z,7.73
2019-06-07T15:10:49.785Z,7.10
2019-06-07T15:13:23.675Z,7.67
2019-06-07T15:15:58.118Z,8.13
2019-06-07T15:18:31.917Z,8.40
2019-06-07T15:21:05.775Z,8.30
2019-06-07T15:23:39.496Z,8.60
2019-06-07T15:26:11.915Z,8.03
2019-06-07T15:28:45.472Z,8.70
2019-06-07T15:31:19.427Z,8.63
2019-06-07T15:33:53.477Z,9.13
2019-06-07T15:36:28.253Z,9.27
2019-06-07T15:39:07.122Z,8.53
2019-06-07T15:41:41.522Z,8.73
2019-06-07T15:44:15.660Z,9.07
2019-06-07T15:46:48.399Z,8.03
2019-06-07T15:49:21.547Z,9.37
2019-06-07T15:51:54.620Z,9.27
2019-06-07T15:54:26.009Z,8.80
2019-06-07T15:56:58.790Z,9.47
2019-06-07T15:59:33.109Z,10.80
2019-06-07T16:02:06.670Z,10.07
2019-06-07T16:04:39.824Z,10.43
2019-06-07T16:07:13.359Z,10.27
2019-06-07T16:09:45.582Z,9.87
2019-06-07T16:12:18.834Z,9.80
2019-06-07T16:14:51.826Z,10.17
2019-06-07T16:17:24.835Z,11.00
2019-06-07T16:19:57.817Z,10.10
2019-06-07T16:22:31.779Z,10.07
2019-06-07T16:25:03.683Z,10.00
2019-06-07T16:27:36.969Z,10.30
2019-06-07T16:30:10.664Z,9.93
2019-06-07T16:32:44.699Z,10.90
2019-06-07T16:35:18.608Z,9.83
2019-06-07T16:37:53.106Z,9.63
2019-06-07T16:40:26.861Z,11.00
2019-06-07T16:43:16.219Z,10.70
2019-06-07T16:45:34.839Z,10.40
2019-06-07T16:48:08.544Z,10.60
2019-06-07T16:50:45.058Z,10.87
2019-06-07T16:53:16.929Z,9.73
2019-06-07T16:55:49.099Z,10.30
2019-06-07T16:58:23.211Z,9.80
2019-06-07T17:00:56.771Z,9.73
2019-06-07T17:03:32.115Z,9.63
2019-06-07T17:06:05.352Z,9.43
2019-06-07T17:08:40.134Z,9.70
2019-06-07T17:11:13.022Z,10.80
2019-06-07T17:13:46.994Z,9.33
2019-06-07T17:16:21.222Z,10.90
2019-06-07T17:18:55.651Z,9.90
2019-06-07T17:21:27.232Z,10.03
2019-06-07T17:24:01.661Z,9.60
2019-06-07T17:26:34.027Z,8.90
2019-06-07T17:29:08.053Z,9.77
2019-06-07T17:31:44.742Z,8.00
2019-06-07T17:34:18.061Z,9.30
2019-06-07T17:36:52.036Z,9.50
2019-06-07T17:39:25.049Z,10.03
2019-06-07T17:42:02.161Z,9.20
2019-06-07T17:44:34.212Z,9.73
2019-06-07T17:47:07.152Z,10.20
2019-06-07T17:49:39.079Z,8.90
2019-06-07T17:52:11.970Z,8.87
2019-06-07T17:54:43.875Z,9.43
2019-06-07T17:57:17.804Z,9.90
2019-06-07T17:59:50.601Z,10.13
2019-06-07T18:02:22.102Z,9.33
2019-06-07T18:04:55.443Z,8.10
2019-06-07T18:07:28.924Z,9.17
2019-06-07T18:10:04.792Z,9.67
2019-06-07T18:12:36.722Z,9.50
2019-06-07T18:15:11.886Z,8.87
2019-06-07T18:17:44.657Z,11.10
2019-06-07T18:20:16.531Z,10.60
2019-06-07T18:22:51.262Z,10.33
2019-06-07T18:25:25.066Z,9.40
2019-06-07T18:27:57.374Z,10.07
2019-06-07T18:30:31.366Z,10.87
2019-06-07T18:33:03.503Z,9.53
2019-06-07T18:35:36.535Z,10.50
2019-06-07T18:38:11.166Z,10.20
2019-06-07T18:40:47.147Z,10.57
2019-06-07T18:43:20.518Z,10.93
2019-06-07T18:45:53.612Z,10.10
2019-06-07T18:48:27.679Z,10.40
2019-06-07T18:51:02.321Z,9.83
2019-06-07T18:53:34.708Z,9.90
2019-06-07T18:56:10.482Z,10.03
2019-06-07T18:58:43.690Z,9.27
2019-06-07T19:01:16.558Z,8.10
2019-06-07T19:03:50.205Z,9.50
2019-06-07T19:06:26.397Z,9.17
2019-06-07T19:09:00.504Z,9.37
2019-06-07T19:11:32.624Z,8.63
2019-06-07T19:14:05.778Z,8.70
2019-06-07T19:16:39.678Z,8.70
2019-06-07T19:19:13.681Z,9.33
2019-06-07T19:21:49.913Z,9.07
2019-06-07T19:24:21.659Z,8.67
2019-06-07T19:26:56.644Z,9.80
2019-06-07T19:29:29.985Z,9.83
2019-06-07T19:32:02.858Z,10.20
2019-06-07T19:34:37.024Z,9.37
2019-06-07T19:37:10.776Z,10.30
2019-06-07T19:39:43.139Z,8.00
2019-06-07T19:42:15.800Z,8.60
2019-06-07T19:44:55.337Z,9.17
2019-06-07T19:47:25.513Z,8.13
2019-06-07T19:49:58.798Z,7.73
2019-06-07T19:52:32.910Z,8.93
2019-06-07T19:55:09.419Z,8.97
2019-06-07T19:57:41.769Z,8.03
2019-06-07T20:00:15.109Z,8.33
2019-06-07T20:02:47.287Z,9.17
2019-06-07T20:05:22.675Z,7.90
2019-06-07T20:07:56.435Z,7.93
2019-06-07T20:10:29.714Z,8.53
2019-06-07T20:13:05.030Z,8.33
2019-06-07T20:15:39.059Z,8.63
2019-06-07T20:18:11.979Z,9.20
2019-06-07T20:20:44.101Z,8.93
2019-06-07T20:23:17.886Z,8.93
2019-06-07T20:25:51.946Z,8.23
2019-06-07T20:28:29.021Z,8.43
2019-06-07T20:31:06.034Z,8.70
2019-06-07T20:33:41.880Z,8.80
2019-06-07T20:36:16.042Z,7.90
2019-06-07T20:38:48.553Z,8.57
2019-06-07T20:41:27.119Z,10.10
2019-06-07T20:44:03.761Z,9.10
2019-06-07T20:46:36.084Z,8.17
2019-06-07T20:49:11.920Z,9.63
2019-06-07T20:51:50.784Z,9.00
2019-06-07T20:54:24.317Z,9.10
2019-06-07T20:57:00.498Z,9.43
2019-06-07T20:59:33.897Z,10.33
2019-06-07T21:02:09.540Z,9.67
2019-06-07T21:04:41.184Z,10.90
2019-06-07T21:07:18.110Z,9.50
2019-06-07T21:09:50.118Z,9.33
2019-06-07T21:12:24.708Z,9.53
2019-06-07T21:15:02.116Z,8.77
2019-06-07T21:17:33.312Z,9.93
2019-06-07T21:20:13.631Z,11.30
2019-06-07T21:22:46.934Z,9.00
2019-06-07T21:25:21.049Z,12.03
2019-06-07T21:27:56.693Z,12.50
2019-06-07T21:30:30.239Z,10.50
2019-06-07T21:33:05.519Z,10.10
2019-06-07T21:35:39.038Z,9.13
2019-06-07T21:38:12.771Z,9.90
2019-06-07T21:40:48.182Z,8.83
2019-06-07T21:43:24.383Z,10.23
2019-06-07T21:46:05.320Z,9.17
2019-06-07T21:48:33.488Z,9.30
2019-06-07T21:51:06.717Z,8.43
2019-06-07T21:53:39.534Z,8.10
2019-06-07T21:56:13.386Z,8.97
2019-06-07T21:58:46.401Z,9.03
2019-06-07T22:01:28.998Z,10.47
2019-06-07T22:04:00.593Z,10.23
2019-06-07T22:06:31.835Z,9.67
2019-06-07T22:09:05.610Z,9.27
2019-06-07T22:11:43.946Z,9.00
2019-06-07T22:14:18.978Z,9.90
2019-06-07T22:16:58.032Z,8.40
2019-06-07T22:19:32.123Z,10.00
2019-06-07T22:22:07.238Z,9.37
2019-06-07T22:24:39.573Z,9.30
2019-06-07T22:27:13.513Z,9.37
2019-06-07T22:29:48.056Z,8.97
2019-06-07T22:32:19.567Z,10.10
2019-06-07T22:34:53.346Z,9.70
2019-06-07T22:37:25.682Z,9.60
2019-06-07T22:39:58.640Z,9.87
2019-06-07T22:42:31.539Z,10.67
2019-06-07T22:45:05.070Z,10.03
2019-06-07T22:47:37.663Z,8.93
2019-06-07T22:50:14.400Z,10.13
2019-06-07T22:52:45.965Z,10.07
2019-06-07T22:55:18.245Z,9.93
2019-06-07T22:57:58.418Z,9.33
2019-06-07T23:00:33.214Z,10.53
2019-06-07T23:03:06.477Z,9.77
2019-06-07T23:05:40.763Z,10.83
2019-06-07T23:08:15.034Z,10.13
2019-06-07T23:10:46.729Z,9.80
2019-06-07T23:13:20.745Z,10.13
2019-06-07T23:15:52.805Z,9.47
2019-06-07T23:18:24.015Z,10.90
2019-06-07T23:20:56.956Z,10.23
2019-06-07T23:23:30.513Z,11.03
2019-06-07T23:26:01.737Z,10.10
2019-06-07T23:28:34.978Z,10.23
2019-06-07T23:31:10.347Z,11.20
2019-06-07T23:33:43.934Z,9.27
2019-06-07T23:36:17.257Z,9.50
2019-06-07T23:38:50.016Z,11.60
2019-06-07T23:41:22.377Z,10.67
2019-06-07T23:43:59.204Z,10.40
2019-06-07T23:46:31.862Z,9.53
2019-06-07T23:49:05.882Z,10.40
2019-06-07T23:51:39.341Z,9.90
2019-06-07T23:54:13.751Z,9.80
